Banja Luka International Airport

Airport
ICAO code: 
LQBK
IATA Code: 
BNX
Summary
ICAO Region: 
EUR
Location: 
Kobatovci, Republika Srpska
Serving: 
Banja Luka
Elevation: 
400 ft
Coordinates: 
Aerial View: 
44° 56' 34.476" N, 17° 17' 47.004" E
Metar
Observation
LQBK 240330Z 36002KT 9999 FEW004 BKN008 M04/M04 Q1032 NOSIG
Station
Banja Luka
Date/Time
2022-01-24 03:30:00
Wind direction
360°
Wind speed
02 kts
Lowest cloud amount
few clouds
Temperature
-4°C
Dew point
-4°C
Humidity
100%
QNH
1032 hPa
Weather condition
n/a

Banja Luka International Airport, also known as Mahovljani Airport, is an airport located 11 nm north northeast of the city of Banja Luka.

Climatology

Humid subtropical climate (Köppen climate classification Cfa)

Runways

Designator Length Width Surface Rops
17/35 2503 45 ASP Yes/Yes
Airport map: 
Aerial View: 

SKYbrary Partners:

Safety knowledge contributed by: